sensor_id;sensor_type;location;lat;lon;timestamp;P1;durP1;ratioP1;P2;durP2;ratioP2
16250;SDS011;8233;50.650;6.832;2022-07-03T00:00:43;0.00;;;0.00;;
16250;SDS011;8233;50.650;6.832;2022-07-03T00:03:09;0.00;;;0.00;;
16250;SDS011;8233;50.650;6.832;2022-07-03T00:05:35;0.00;;;0.00;;
16250;SDS011;8233;50.650;6.832;2022-07-03T00:08:03;0.00;;;0.00;;
16250;SDS011;8233;50.650;6.832;2022-07-03T00:10:29;0.00;;;0.00;;
16250;SDS011;8233;50.650;6.832;2022-07-03T00:12:55;0.00;;;0.00;;
16250;SDS011;8233;50.650;6.832;2022-07-03T00:15:21;0.00;;;0.00;;
16250;SDS011;8233;50.650;6.832;2022-07-03T00:17:47;0.00;;;0.00;;
16250;SDS011;8233;50.650;6.832;2022-07-03T00:20:13;0.00;;;0.00;;
16250;SDS011;8233;50.650;6.832;2022-07-03T00:22:41;0.00;;;0.00;;
16250;SDS011;8233;50.650;6.832;2022-07-03T00:25:10;0.00;;;0.00;;
16250;SDS011;8233;50.650;6.832;2022-07-03T00:27:37;0.00;;;0.00;;
16250;SDS011;8233;50.650;6.832;2022-07-03T00:30:04;0.00;;;0.00;;
16250;SDS011;8233;50.650;6.832;2022-07-03T00:32:33;0.00;;;0.00;;
16250;SDS011;8233;50.650;6.832;2022-07-03T00:35:02;0.00;;;0.00;;
16250;SDS011;8233;50.650;6.832;2022-07-03T00:37:28;0.00;;;0.00;;
16250;SDS011;8233;50.650;6.832;2022-07-03T00:39:55;0.00;;;0.00;;
16250;SDS011;8233;50.650;6.832;2022-07-03T00:42:22;0.00;;;0.00;;
16250;SDS011;8233;50.650;6.832;2022-07-03T00:47:15;0.00;;;0.00;;
16250;SDS011;8233;50.650;6.832;2022-07-03T00:49:44;0.00;;;0.00;;
16250;SDS011;8233;50.650;6.832;2022-07-03T00:52:12;0.00;;;0.00;;
16250;SDS011;8233;50.650;6.832;2022-07-03T00:54:42;0.00;;;0.00;;
16250;SDS011;8233;50.650;6.832;2022-07-03T00:57:12;0.00;;;0.00;;
16250;SDS011;8233;50.650;6.832;2022-07-03T00:59:40;0.00;;;0.00;;
16250;SDS011;8233;50.650;6.832;2022-07-03T01:07:00;0.00;;;0.00;;
16250;SDS011;8233;50.650;6.832;2022-07-03T01:17:32;0.00;;;0.00;;
16250;SDS011;8233;50.650;6.832;2022-07-03T01:20:03;0.00;;;0.00;;
16250;SDS011;8233;50.650;6.832;2022-07-03T01:22:44;0.00;;;0.00;;
16250;SDS011;8233;50.650;6.832;2022-07-03T01:25:24;0.00;;;0.00;;
16250;SDS011;8233;50.650;6.832;2022-07-03T01:30:55;0.00;;;0.00;;
16250;SDS011;8233;50.650;6.832;2022-07-03T01:33:26;0.00;;;0.00;;
16250;SDS011;8233;50.650;6.832;2022-07-03T01:38:29;0.00;;;0.00;;
16250;SDS011;8233;50.650;6.832;2022-07-03T01:40:57;0.00;;;0.00;;
16250;SDS011;8233;50.650;6.832;2022-07-03T01:43:27;0.00;;;0.00;;
16250;SDS011;8233;50.650;6.832;2022-07-03T01:45:56;0.00;;;0.00;;
16250;SDS011;8233;50.650;6.832;2022-07-03T01:48:24;0.00;;;0.00;;
16250;SDS011;8233;50.650;6.832;2022-07-03T01:50:51;0.00;;;0.00;;
16250;SDS011;8233;50.650;6.832;2022-07-03T01:53:25;0.00;;;0.00;;
16250;SDS011;8233;50.650;6.832;2022-07-03T01:55:56;0.00;;;0.00;;
16250;SDS011;8233;50.650;6.832;2022-07-03T01:58:23;0.00;;;0.00;;
16250;SDS011;8233;50.650;6.832;2022-07-03T02:00:52;0.00;;;0.00;;
16250;SDS011;8233;50.650;6.832;2022-07-03T02:03:35;0.00;;;0.00;;
16250;SDS011;8233;50.650;6.832;2022-07-03T02:06:09;0.00;;;0.00;;
16250;SDS011;8233;50.650;6.832;2022-07-03T02:11:28;0.00;;;0.00;;
16250;SDS011;8233;50.650;6.832;2022-07-03T02:14:13;0.00;;;0.00;;
16250;SDS011;8233;50.650;6.832;2022-07-03T02:19:33;0.00;;;0.00;;
16250;SDS011;8233;50.650;6.832;2022-07-03T02:22:06;0.00;;;0.00;;
16250;SDS011;8233;50.650;6.832;2022-07-03T02:24:41;0.00;;;0.00;;
16250;SDS011;8233;50.650;6.832;2022-07-03T02:27:12;0.00;;;0.00;;
16250;SDS011;8233;50.650;6.832;2022-07-03T02:32:21;0.00;;;0.00;;
16250;SDS011;8233;50.650;6.832;2022-07-03T02:34:52;0.00;;;0.00;;
16250;SDS011;8233;50.650;6.832;2022-07-03T02:37:26;0.00;;;0.00;;
16250;SDS011;8233;50.650;6.832;2022-07-03T02:40:02;0.00;;;0.00;;
16250;SDS011;8233;50.650;6.832;2022-07-03T02:45:15;0.00;;;0.00;;
16250;SDS011;8233;50.650;6.832;2022-07-03T02:48:02;0.00;;;0.00;;
16250;SDS011;8233;50.650;6.832;2022-07-03T02:50:33;0.00;;;0.00;;
16250;SDS011;8233;50.650;6.832;2022-07-03T02:55:43;0.00;;;0.00;;
16250;SDS011;8233;50.650;6.832;2022-07-03T03:04:02;0.00;;;0.00;;
16250;SDS011;8233;50.650;6.832;2022-07-03T03:06:49;0.00;;;0.00;;
16250;SDS011;8233;50.650;6.832;2022-07-03T03:09:26;0.00;;;0.00;;
16250;SDS011;8233;50.650;6.832;2022-07-03T03:11:58;0.00;;;0.00;;
16250;SDS011;8233;50.650;6.832;2022-07-03T03:14:27;0.00;;;0.00;;
16250;SDS011;8233;50.650;6.832;2022-07-03T03:17:02;0.00;;;0.00;;
16250;SDS011;8233;50.650;6.832;2022-07-03T03:21:58;0.00;;;0.00;;
16250;SDS011;8233;50.650;6.832;2022-07-03T03:24:39;0.00;;;0.00;;
16250;SDS011;8233;50.650;6.832;2022-07-03T03:27:05;0.00;;;0.00;;
16250;SDS011;8233;50.650;6.832;2022-07-03T03:29:31;0.00;;;0.00;;
16250;SDS011;8233;50.650;6.832;2022-07-03T03:41:41;0.00;;;0.00;;
16250;SDS011;8233;50.650;6.832;2022-07-03T03:44:08;0.00;;;0.00;;
16250;SDS011;8233;50.650;6.832;2022-07-03T03:46:33;0.00;;;0.00;;
16250;SDS011;8233;50.650;6.832;2022-07-03T03:48:59;0.00;;;0.00;;
16250;SDS011;8233;50.650;6.832;2022-07-03T03:51:26;0.00;;;0.00;;
16250;SDS011;8233;50.650;6.832;2022-07-03T03:53:52;0.00;;;0.00;;
16250;SDS011;8233;50.650;6.832;2022-07-03T04:08:27;0.00;;;0.00;;
16250;SDS011;8233;50.650;6.832;2022-07-03T04:10:54;0.00;;;0.00;;
16250;SDS011;8233;50.650;6.832;2022-07-03T04:13:20;0.00;;;0.00;;
16250;SDS011;8233;50.650;6.832;2022-07-03T04:15:46;0.00;;;0.00;;
16250;SDS011;8233;50.650;6.832;2022-07-03T04:18:15;0.00;;;0.00;;
16250;SDS011;8233;50.650;6.832;2022-07-03T04:23:07;0.00;;;0.00;;
16250;SDS011;8233;50.650;6.832;2022-07-03T04:25:33;0.00;;;0.00;;
16250;SDS011;8233;50.650;6.832;2022-07-03T04:27:59;0.00;;;0.00;;
16250;SDS011;8233;50.650;6.832;2022-07-03T04:30:25;0.00;;;0.00;;
16250;SDS011;8233;50.650;6.832;2022-07-03T04:32:51;0.00;;;0.00;;
16250;SDS011;8233;50.650;6.832;2022-07-03T04:35:17;0.00;;;0.00;;
16250;SDS011;8233;50.650;6.832;2022-07-03T04:37:48;0.00;;;0.00;;
16250;SDS011;8233;50.650;6.832;2022-07-03T04:40:13;0.00;;;0.00;;
16250;SDS011;8233;50.650;6.832;2022-07-03T04:42:40;0.00;;;0.00;;
16250;SDS011;8233;50.650;6.832;2022-07-03T04:45:06;0.00;;;0.00;;
16250;SDS011;8233;50.650;6.832;2022-07-03T04:47:32;0.00;;;0.00;;
16250;SDS011;8233;50.650;6.832;2022-07-03T04:49:58;0.00;;;0.00;;
16250;SDS011;8233;50.650;6.832;2022-07-03T04:52:24;0.00;;;0.00;;
16250;SDS011;8233;50.650;6.832;2022-07-03T04:54:50;0.00;;;0.00;;
16250;SDS011;8233;50.650;6.832;2022-07-03T04:57:16;0.00;;;0.00;;
16250;SDS011;8233;50.650;6.832;2022-07-03T04:59:43;0.00;;;0.00;;
16250;SDS011;8233;50.650;6.832;2022-07-03T05:02:09;0.00;;;0.00;;
16250;SDS011;8233;50.650;6.832;2022-07-03T05:04:35;0.00;;;0.00;;
16250;SDS011;8233;50.650;6.832;2022-07-03T05:07:01;0.00;;;0.00;;
16250;SDS011;8233;50.650;6.832;2022-07-03T05:09:27;0.00;;;0.00;;
16250;SDS011;8233;50.650;6.832;2022-07-03T05:11:53;0.00;;;0.00;;
16250;SDS011;8233;50.650;6.832;2022-07-03T05:14:19;0.00;;;0.00;;
16250;SDS011;8233;50.650;6.832;2022-07-03T05:16:45;0.00;;;0.00;;
16250;SDS011;8233;50.650;6.832;2022-07-03T05:19:11;0.00;;;0.00;;
16250;SDS011;8233;50.650;6.832;2022-07-03T05:21:37;0.00;;;0.00;;
16250;SDS011;8233;50.650;6.832;2022-07-03T05:24:03;0.00;;;0.00;;
16250;SDS011;8233;50.650;6.832;2022-07-03T05:26:29;0.00;;;0.00;;
16250;SDS011;8233;50.650;6.832;2022-07-03T05:28:55;0.00;;;0.00;;
16250;SDS011;8233;50.650;6.832;2022-07-03T05:31:22;0.00;;;0.00;;
16250;SDS011;8233;50.650;6.832;2022-07-03T05:33:48;0.00;;;0.00;;
16250;SDS011;8233;50.650;6.832;2022-07-03T05:36:14;0.00;;;0.00;;
16250;SDS011;8233;50.650;6.832;2022-07-03T05:38:40;0.00;;;0.00;;
16250;SDS011;8233;50.650;6.832;2022-07-03T05:41:24;0.00;;;0.00;;
16250;SDS011;8233;50.650;6.832;2022-07-03T05:43:50;0.00;;;0.00;;
16250;SDS011;8233;50.650;6.832;2022-07-03T05:46:17;0.00;;;0.00;;
16250;SDS011;8233;50.650;6.832;2022-07-03T05:48:43;0.00;;;0.00;;
16250;SDS011;8233;50.650;6.832;2022-07-03T05:51:09;0.00;;;0.00;;
16250;SDS011;8233;50.650;6.832;2022-07-03T05:53:35;0.00;;;0.00;;
16250;SDS011;8233;50.650;6.832;2022-07-03T05:56:01;0.00;;;0.00;;
16250;SDS011;8233;50.650;6.832;2022-07-03T05:58:27;0.00;;;0.00;;
16250;SDS011;8233;50.650;6.832;2022-07-03T06:00:53;0.00;;;0.00;;
16250;SDS011;8233;50.650;6.832;2022-07-03T06:03:19;0.00;;;0.00;;
16250;SDS011;8233;50.650;6.832;2022-07-03T06:05:45;0.00;;;0.00;;
16250;SDS011;8233;50.650;6.832;2022-07-03T06:08:11;0.00;;;0.00;;
16250;SDS011;8233;50.650;6.832;2022-07-03T06:10:37;0.00;;;0.00;;
16250;SDS011;8233;50.650;6.832;2022-07-03T06:13:03;0.00;;;0.00;;
16250;SDS011;8233;50.650;6.832;2022-07-03T06:15:29;0.00;;;0.00;;
16250;SDS011;8233;50.650;6.832;2022-07-03T06:17:55;0.00;;;0.00;;
16250;SDS011;8233;50.650;6.832;2022-07-03T06:20:21;0.00;;;0.00;;
16250;SDS011;8233;50.650;6.832;2022-07-03T06:22:47;0.00;;;0.00;;
16250;SDS011;8233;50.650;6.832;2022-07-03T06:25:13;0.00;;;0.00;;
16250;SDS011;8233;50.650;6.832;2022-07-03T06:27:38;0.00;;;0.00;;
16250;SDS011;8233;50.650;6.832;2022-07-03T06:30:05;0.00;;;0.00;;
16250;SDS011;8233;50.650;6.832;2022-07-03T06:32:31;0.00;;;0.00;;
16250;SDS011;8233;50.650;6.832;2022-07-03T06:34:57;0.00;;;0.00;;
16250;SDS011;8233;50.650;6.832;2022-07-03T06:37:23;0.00;;;0.00;;
16250;SDS011;8233;50.650;6.832;2022-07-03T06:39:49;0.00;;;0.00;;
16250;SDS011;8233;50.650;6.832;2022-07-03T06:42:15;0.00;;;0.00;;
16250;SDS011;8233;50.650;6.832;2022-07-03T06:44:41;0.00;;;0.00;;
16250;SDS011;8233;50.650;6.832;2022-07-03T06:47:09;0.00;;;0.00;;
16250;SDS011;8233;50.650;6.832;2022-07-03T06:49:36;0.00;;;0.00;;
16250;SDS011;8233;50.650;6.832;2022-07-03T06:52:02;0.00;;;0.00;;
16250;SDS011;8233;50.650;6.832;2022-07-03T06:54:28;0.00;;;0.00;;
16250;SDS011;8233;50.650;6.832;2022-07-03T06:56:54;0.00;;;0.00;;
16250;SDS011;8233;50.650;6.832;2022-07-03T06:59:20;0.10;;;0.10;;
16250;SDS011;8233;50.650;6.832;2022-07-03T07:01:46;0.10;;;0.10;;
16250;SDS011;8233;50.650;6.832;2022-07-03T07:06:38;0.10;;;0.10;;
16250;SDS011;8233;50.650;6.832;2022-07-03T07:09:04;0.10;;;0.10;;
16250;SDS011;8233;50.650;6.832;2022-07-03T07:11:30;0.10;;;0.10;;
16250;SDS011;8233;50.650;6.832;2022-07-03T07:13:56;0.20;;;0.20;;
16250;SDS011;8233;50.650;6.832;2022-07-03T07:16:21;0.20;;;0.20;;
16250;SDS011;8233;50.650;6.832;2022-07-03T07:18:47;0.20;;;0.20;;
16250;SDS011;8233;50.650;6.832;2022-07-03T07:21:13;0.20;;;0.20;;
16250;SDS011;8233;50.650;6.832;2022-07-03T07:23:39;0.20;;;0.20;;
16250;SDS011;8233;50.650;6.832;2022-07-03T07:26:05;0.20;;;0.20;;
16250;SDS011;8233;50.650;6.832;2022-07-03T07:28:31;0.20;;;0.20;;
16250;SDS011;8233;50.650;6.832;2022-07-03T07:30:58;0.30;;;0.30;;
16250;SDS011;8233;50.650;6.832;2022-07-03T07:33:24;0.20;;;0.20;;
16250;SDS011;8233;50.650;6.832;2022-07-03T07:35:50;0.30;;;0.30;;
16250;SDS011;8233;50.650;6.832;2022-07-03T07:38:16;0.30;;;0.30;;
16250;SDS011;8233;50.650;6.832;2022-07-03T07:40:43;0.30;;;0.30;;
16250;SDS011;8233;50.650;6.832;2022-07-03T07:43:09;0.32;;;0.32;;
16250;SDS011;8233;50.650;6.832;2022-07-03T07:45:34;0.40;;;0.40;;
16250;SDS011;8233;50.650;6.832;2022-07-03T07:48:00;0.40;;;0.40;;
16250;SDS011;8233;50.650;6.832;2022-07-03T07:50:26;0.40;;;0.40;;
16250;SDS011;8233;50.650;6.832;2022-07-03T07:52:52;0.50;;;0.50;;
16250;SDS011;8233;50.650;6.832;2022-07-03T07:55:18;0.55;;;0.55;;
16250;SDS011;8233;50.650;6.832;2022-07-03T07:57:45;0.60;;;0.60;;
16250;SDS011;8233;50.650;6.832;2022-07-03T08:00:12;0.60;;;0.60;;
16250;SDS011;8233;50.650;6.832;2022-07-03T08:02:40;0.40;;;0.40;;
16250;SDS011;8233;50.650;6.832;2022-07-03T08:05:25;0.40;;;0.40;;
16250;SDS011;8233;50.650;6.832;2022-07-03T08:08:13;0.40;;;0.40;;
16250;SDS011;8233;50.650;6.832;2022-07-03T08:10:42;0.40;;;0.40;;
16250;SDS011;8233;50.650;6.832;2022-07-03T08:13:13;0.55;;;0.55;;
16250;SDS011;8233;50.650;6.832;2022-07-03T08:15:40;0.60;;;0.60;;
16250;SDS011;8233;50.650;6.832;2022-07-03T08:18:06;0.60;;;0.60;;
16250;SDS011;8233;50.650;6.832;2022-07-03T08:20:33;0.60;;;0.60;;
16250;SDS011;8233;50.650;6.832;2022-07-03T08:22:59;0.70;;;0.70;;
16250;SDS011;8233;50.650;6.832;2022-07-03T08:25:25;0.70;;;0.70;;
16250;SDS011;8233;50.650;6.832;2022-07-03T08:27:51;0.65;;;0.65;;
16250;SDS011;8233;50.650;6.832;2022-07-03T08:30:17;0.70;;;0.70;;
16250;SDS011;8233;50.650;6.832;2022-07-03T08:32:44;0.80;;;0.80;;
16250;SDS011;8233;50.650;6.832;2022-07-03T08:35:10;1.10;;;1.10;;
16250;SDS011;8233;50.650;6.832;2022-07-03T08:37:37;0.90;;;0.90;;
16250;SDS011;8233;50.650;6.832;2022-07-03T08:40:06;1.00;;;1.00;;
16250;SDS011;8233;50.650;6.832;2022-07-03T08:42:33;0.90;;;0.90;;
16250;SDS011;8233;50.650;6.832;2022-07-03T08:45:01;0.80;;;0.80;;
16250;SDS011;8233;50.650;6.832;2022-07-03T08:47:27;0.80;;;0.80;;
16250;SDS011;8233;50.650;6.832;2022-07-03T08:49:54;0.80;;;0.80;;
16250;SDS011;8233;50.650;6.832;2022-07-03T08:52:22;0.75;;;0.75;;
16250;SDS011;8233;50.650;6.832;2022-07-03T08:54:48;0.85;;;0.85;;
16250;SDS011;8233;50.650;6.832;2022-07-03T08:57:15;0.80;;;0.80;;
16250;SDS011;8233;50.650;6.832;2022-07-03T08:59:42;0.80;;;0.80;;
16250;SDS011;8233;50.650;6.832;2022-07-03T09:02:11;0.90;;;0.90;;
16250;SDS011;8233;50.650;6.832;2022-07-03T09:04:38;1.00;;;1.00;;
16250;SDS011;8233;50.650;6.832;2022-07-03T09:07:05;0.80;;;0.80;;
16250;SDS011;8233;50.650;6.832;2022-07-03T09:09:32;0.80;;;0.80;;
16250;SDS011;8233;50.650;6.832;2022-07-03T09:11:59;0.80;;;0.80;;
16250;SDS011;8233;50.650;6.832;2022-07-03T09:14:25;0.90;;;0.90;;
16250;SDS011;8233;50.650;6.832;2022-07-03T09:16:51;1.10;;;1.10;;
16250;SDS011;8233;50.650;6.832;2022-07-03T09:19:38;1.17;;;1.17;;
16250;SDS011;8233;50.650;6.832;2022-07-03T09:22:03;1.10;;;1.10;;
16250;SDS011;8233;50.650;6.832;2022-07-03T09:24:29;0.80;;;0.80;;
16250;SDS011;8233;50.650;6.832;2022-07-03T09:26:58;0.60;;;0.60;;
16250;SDS011;8233;50.650;6.832;2022-07-03T09:29:24;0.70;;;0.70;;
16250;SDS011;8233;50.650;6.832;2022-07-03T09:31:54;0.60;;;0.60;;
16250;SDS011;8233;50.650;6.832;2022-07-03T09:34:23;0.60;;;0.60;;
16250;SDS011;8233;50.650;6.832;2022-07-03T09:36:51;0.50;;;0.50;;
16250;SDS011;8233;50.650;6.832;2022-07-03T09:41:51;0.60;;;0.60;;
16250;SDS011;8233;50.650;6.832;2022-07-03T09:47:24;0.60;;;0.60;;
16250;SDS011;8233;50.650;6.832;2022-07-03T09:52:26;0.50;;;0.50;;
16250;SDS011;8233;50.650;6.832;2022-07-03T09:54:53;0.60;;;0.60;;
16250;SDS011;8233;50.650;6.832;2022-07-03T09:57:20;0.60;;;0.60;;
16250;SDS011;8233;50.650;6.832;2022-07-03T09:59:48;0.70;;;0.70;;
16250;SDS011;8233;50.650;6.832;2022-07-03T10:02:14;0.82;;;0.82;;
16250;SDS011;8233;50.650;6.832;2022-07-03T10:04:40;0.90;;;0.90;;
16250;SDS011;8233;50.650;6.832;2022-07-03T10:07:06;1.00;;;1.00;;
16250;SDS011;8233;50.650;6.832;2022-07-03T10:09:33;0.80;;;0.80;;
16250;SDS011;8233;50.650;6.832;2022-07-03T10:12:01;0.90;;;0.90;;
16250;SDS011;8233;50.650;6.832;2022-07-03T10:14:31;0.90;;;0.90;;
16250;SDS011;8233;50.650;6.832;2022-07-03T10:16:57;0.95;;;0.95;;
16250;SDS011;8233;50.650;6.832;2022-07-03T10:19:27;1.00;;;1.00;;
16250;SDS011;8233;50.650;6.832;2022-07-03T10:24:24;1.00;;;1.00;;
16250;SDS011;8233;50.650;6.832;2022-07-03T10:26:51;1.08;;;1.08;;
16250;SDS011;8233;50.650;6.832;2022-07-03T10:29:17;0.90;;;0.90;;
16250;SDS011;8233;50.650;6.832;2022-07-03T10:31:46;0.65;;;0.65;;
16250;SDS011;8233;50.650;6.832;2022-07-03T10:34:30;0.60;;;0.60;;
16250;SDS011;8233;50.650;6.832;2022-07-03T10:36:58;0.70;;;0.70;;
16250;SDS011;8233;50.650;6.832;2022-07-03T10:42:11;0.70;;;0.70;;
16250;SDS011;8233;50.650;6.832;2022-07-03T10:45:10;0.70;;;0.70;;
16250;SDS011;8233;50.650;6.832;2022-07-03T10:47:38;0.70;;;0.70;;
16250;SDS011;8233;50.650;6.832;2022-07-03T10:50:08;0.63;;;0.63;;
16250;SDS011;8233;50.650;6.832;2022-07-03T10:52:35;0.50;;;0.50;;
16250;SDS011;8233;50.650;6.832;2022-07-03T10:55:01;0.50;;;0.50;;
16250;SDS011;8233;50.650;6.832;2022-07-03T10:57:28;0.50;;;0.50;;
16250;SDS011;8233;50.650;6.832;2022-07-03T11:05:09;0.50;;;0.50;;
16250;SDS011;8233;50.650;6.832;2022-07-03T11:07:42;0.60;;;0.60;;
16250;SDS011;8233;50.650;6.832;2022-07-03T11:20:31;0.30;;;0.30;;
16250;SDS011;8233;50.650;6.832;2022-07-03T11:25:46;0.20;;;0.20;;
16250;SDS011;8233;50.650;6.832;2022-07-03T11:36:29;0.10;;;0.10;;
16250;SDS011;8233;50.650;6.832;2022-07-03T11:41:22;0.10;;;0.10;;
16250;SDS011;8233;50.650;6.832;2022-07-03T11:43:52;0.10;;;0.10;;
16250;SDS011;8233;50.650;6.832;2022-07-03T11:46:19;0.10;;;0.10;;
16250;SDS011;8233;50.650;6.832;2022-07-03T11:48:45;0.10;;;0.10;;
16250;SDS011;8233;50.650;6.832;2022-07-03T11:51:11;0.10;;;0.10;;
16250;SDS011;8233;50.650;6.832;2022-07-03T11:53:38;0.10;;;0.10;;
16250;SDS011;8233;50.650;6.832;2022-07-03T11:56:09;0.10;;;0.10;;
16250;SDS011;8233;50.650;6.832;2022-07-03T11:58:42;0.10;;;0.10;;
16250;SDS011;8233;50.650;6.832;2022-07-03T12:01:09;0.10;;;0.10;;
16250;SDS011;8233;50.650;6.832;2022-07-03T12:03:36;0.10;;;0.10;;
16250;SDS011;8233;50.650;6.832;2022-07-03T12:06:02;0.10;;;0.10;;
16250;SDS011;8233;50.650;6.832;2022-07-03T12:08:31;0.10;;;0.10;;
16250;SDS011;8233;50.650;6.832;2022-07-03T12:11:03;0.10;;;0.10;;
16250;SDS011;8233;50.650;6.832;2022-07-03T12:13:29;0.10;;;0.10;;
16250;SDS011;8233;50.650;6.832;2022-07-03T12:16:03;0.00;;;0.00;;
16250;SDS011;8233;50.650;6.832;2022-07-03T12:18:42;0.10;;;0.10;;
16250;SDS011;8233;50.650;6.832;2022-07-03T12:21:08;0.10;;;0.10;;
16250;SDS011;8233;50.650;6.832;2022-07-03T12:26:33;0.00;;;0.00;;
16250;SDS011;8233;50.650;6.832;2022-07-03T12:29:04;0.00;;;0.00;;
16250;SDS011;8233;50.650;6.832;2022-07-03T12:31:31;0.00;;;0.00;;
16250;SDS011;8233;50.650;6.832;2022-07-03T12:33:58;0.10;;;0.10;;
16250;SDS011;8233;50.650;6.832;2022-07-03T12:36:24;0.00;;;0.00;;
16250;SDS011;8233;50.650;6.832;2022-07-03T12:38:57;0.00;;;0.00;;
16250;SDS011;8233;50.650;6.832;2022-07-03T12:41:24;0.00;;;0.00;;
16250;SDS011;8233;50.650;6.832;2022-07-03T12:43:51;0.00;;;0.00;;
16250;SDS011;8233;50.650;6.832;2022-07-03T12:46:22;0.00;;;0.00;;
16250;SDS011;8233;50.650;6.832;2022-07-03T12:48:52;0.00;;;0.00;;
16250;SDS011;8233;50.650;6.832;2022-07-03T12:54:07;0.00;;;0.00;;
16250;SDS011;8233;50.650;6.832;2022-07-03T12:56:33;0.00;;;0.00;;
16250;SDS011;8233;50.650;6.832;2022-07-03T12:58:59;0.00;;;0.00;;
16250;SDS011;8233;50.650;6.832;2022-07-03T13:01:44;0.00;;;0.00;;
16250;SDS011;8233;50.650;6.832;2022-07-03T13:04:11;0.00;;;0.00;;
16250;SDS011;8233;50.650;6.832;2022-07-03T13:06:43;0.00;;;0.00;;
16250;SDS011;8233;50.650;6.832;2022-07-03T13:09:10;0.00;;;0.00;;
16250;SDS011;8233;50.650;6.832;2022-07-03T13:11:37;0.00;;;0.00;;
16250;SDS011;8233;50.650;6.832;2022-07-03T13:14:04;0.00;;;0.00;;
16250;SDS011;8233;50.650;6.832;2022-07-03T13:16:35;0.00;;;0.00;;
16250;SDS011;8233;50.650;6.832;2022-07-03T13:19:03;0.08;;;0.08;;
16250;SDS011;8233;50.650;6.832;2022-07-03T13:21:30;0.00;;;0.00;;
16250;SDS011;8233;50.650;6.832;2022-07-03T13:23:56;0.00;;;0.00;;
16250;SDS011;8233;50.650;6.832;2022-07-03T13:26:22;0.00;;;0.00;;
16250;SDS011;8233;50.650;6.832;2022-07-03T13:28:48;0.00;;;0.00;;
16250;SDS011;8233;50.650;6.832;2022-07-03T13:31:14;0.00;;;0.00;;
16250;SDS011;8233;50.650;6.832;2022-07-03T13:33:40;0.00;;;0.00;;
16250;SDS011;8233;50.650;6.832;2022-07-03T13:36:06;0.00;;;0.00;;
16250;SDS011;8233;50.650;6.832;2022-07-03T13:38:32;0.00;;;0.00;;
16250;SDS011;8233;50.650;6.832;2022-07-03T13:40:59;0.00;;;0.00;;
16250;SDS011;8233;50.650;6.832;2022-07-03T13:43:25;0.00;;;0.00;;
16250;SDS011;8233;50.650;6.832;2022-07-03T13:45:51;0.00;;;0.00;;
16250;SDS011;8233;50.650;6.832;2022-07-03T13:48:17;0.00;;;0.00;;
16250;SDS011;8233;50.650;6.832;2022-07-03T13:50:46;0.00;;;0.00;;
16250;SDS011;8233;50.650;6.832;2022-07-03T13:53:12;0.00;;;0.00;;
16250;SDS011;8233;50.650;6.832;2022-07-03T13:55:39;0.00;;;0.00;;
16250;SDS011;8233;50.650;6.832;2022-07-03T13:58:08;0.00;;;0.00;;
16250;SDS011;8233;50.650;6.832;2022-07-03T14:00:40;0.00;;;0.00;;
16250;SDS011;8233;50.650;6.832;2022-07-03T14:03:06;0.00;;;0.00;;
16250;SDS011;8233;50.650;6.832;2022-07-03T14:05:32;0.00;;;0.00;;
16250;SDS011;8233;50.650;6.832;2022-07-03T14:07:58;0.00;;;0.00;;
16250;SDS011;8233;50.650;6.832;2022-07-03T14:10:24;0.00;;;0.00;;
16250;SDS011;8233;50.650;6.832;2022-07-03T14:12:51;0.00;;;0.00;;
16250;SDS011;8233;50.650;6.832;2022-07-03T14:15:17;0.00;;;0.00;;
16250;SDS011;8233;50.650;6.832;2022-07-03T14:17:44;0.00;;;0.00;;
16250;SDS011;8233;50.650;6.832;2022-07-03T14:20:10;0.00;;;0.00;;
16250;SDS011;8233;50.650;6.832;2022-07-03T14:22:37;0.00;;;0.00;;
16250;SDS011;8233;50.650;6.832;2022-07-03T14:25:03;0.00;;;0.00;;
16250;SDS011;8233;50.650;6.832;2022-07-03T14:27:29;0.00;;;0.00;;
16250;SDS011;8233;50.650;6.832;2022-07-03T14:30:14;0.00;;;0.00;;
16250;SDS011;8233;50.650;6.832;2022-07-03T14:32:58;0.00;;;0.00;;
16250;SDS011;8233;50.650;6.832;2022-07-03T14:35:25;0.00;;;0.00;;
16250;SDS011;8233;50.650;6.832;2022-07-03T14:37:51;0.00;;;0.00;;
16250;SDS011;8233;50.650;6.832;2022-07-03T14:40:17;0.00;;;0.00;;
16250;SDS011;8233;50.650;6.832;2022-07-03T14:42:43;0.00;;;0.00;;
16250;SDS011;8233;50.650;6.832;2022-07-03T14:45:09;0.00;;;0.00;;
16250;SDS011;8233;50.650;6.832;2022-07-03T14:47:35;0.00;;;0.00;;
16250;SDS011;8233;50.650;6.832;2022-07-03T14:50:02;0.00;;;0.00;;
16250;SDS011;8233;50.650;6.832;2022-07-03T14:52:28;0.00;;;0.00;;
16250;SDS011;8233;50.650;6.832;2022-07-03T14:54:54;0.00;;;0.00;;
16250;SDS011;8233;50.650;6.832;2022-07-03T14:57:26;0.00;;;0.00;;
16250;SDS011;8233;50.650;6.832;2022-07-03T15:02:53;0.00;;;0.00;;
16250;SDS011;8233;50.650;6.832;2022-07-03T15:05:16;0.00;;;0.00;;
16250;SDS011;8233;50.650;6.832;2022-07-03T15:07:47;0.00;;;0.00;;
16250;SDS011;8233;50.650;6.832;2022-07-03T15:10:16;0.00;;;0.00;;
16250;SDS011;8233;50.650;6.832;2022-07-03T15:12:43;0.00;;;0.00;;
16250;SDS011;8233;50.650;6.832;2022-07-03T15:15:12;0.00;;;0.00;;
16250;SDS011;8233;50.650;6.832;2022-07-03T15:17:40;0.00;;;0.00;;
16250;SDS011;8233;50.650;6.832;2022-07-03T15:20:06;0.00;;;0.00;;
16250;SDS011;8233;50.650;6.832;2022-07-03T15:22:39;0.00;;;0.00;;
16250;SDS011;8233;50.650;6.832;2022-07-03T15:25:07;0.00;;;0.00;;
16250;SDS011;8233;50.650;6.832;2022-07-03T15:27:33;0.00;;;0.00;;
16250;SDS011;8233;50.650;6.832;2022-07-03T15:29:59;0.00;;;0.00;;
16250;SDS011;8233;50.650;6.832;2022-07-03T15:32:26;0.00;;;0.00;;
16250;SDS011;8233;50.650;6.832;2022-07-03T15:34:52;0.00;;;0.00;;
16250;SDS011;8233;50.650;6.832;2022-07-03T15:39:49;0.00;;;0.00;;
16250;SDS011;8233;50.650;6.832;2022-07-03T15:42:20;0.00;;;0.00;;
16250;SDS011;8233;50.650;6.832;2022-07-03T15:44:54;0.00;;;0.00;;
16250;SDS011;8233;50.650;6.832;2022-07-03T15:50:07;0.00;;;0.00;;
16250;SDS011;8233;50.650;6.832;2022-07-03T15:52:34;0.00;;;0.00;;
16250;SDS011;8233;50.650;6.832;2022-07-03T15:55:05;0.00;;;0.00;;
16250;SDS011;8233;50.650;6.832;2022-07-03T15:57:44;0.00;;;0.00;;
16250;SDS011;8233;50.650;6.832;2022-07-03T16:00:12;0.00;;;0.00;;
16250;SDS011;8233;50.650;6.832;2022-07-03T16:05:12;0.00;;;0.00;;
16250;SDS011;8233;50.650;6.832;2022-07-03T16:07:39;0.00;;;0.00;;
16250;SDS011;8233;50.650;6.832;2022-07-03T16:10:07;0.00;;;0.00;;
16250;SDS011;8233;50.650;6.832;2022-07-03T16:12:33;0.00;;;0.00;;
16250;SDS011;8233;50.650;6.832;2022-07-03T16:15:00;0.00;;;0.00;;
16250;SDS011;8233;50.650;6.832;2022-07-03T16:17:27;0.00;;;0.00;;
16250;SDS011;8233;50.650;6.832;2022-07-03T16:19:53;0.00;;;0.00;;
16250;SDS011;8233;50.650;6.832;2022-07-03T16:22:21;0.00;;;0.00;;
16250;SDS011;8233;50.650;6.832;2022-07-03T16:24:49;0.00;;;0.00;;
16250;SDS011;8233;50.650;6.832;2022-07-03T16:27:16;0.00;;;0.00;;
16250;SDS011;8233;50.650;6.832;2022-07-03T16:29:48;0.00;;;0.00;;
16250;SDS011;8233;50.650;6.832;2022-07-03T16:32:19;0.00;;;0.00;;
16250;SDS011;8233;50.650;6.832;2022-07-03T16:34:56;0.00;;;0.00;;
16250;SDS011;8233;50.650;6.832;2022-07-03T16:40:01;0.00;;;0.00;;
16250;SDS011;8233;50.650;6.832;2022-07-03T16:42:30;0.00;;;0.00;;
16250;SDS011;8233;50.650;6.832;2022-07-03T16:44:58;0.00;;;0.00;;
16250;SDS011;8233;50.650;6.832;2022-07-03T16:47:28;0.00;;;0.00;;
16250;SDS011;8233;50.650;6.832;2022-07-03T16:49:56;0.00;;;0.00;;
16250;SDS011;8233;50.650;6.832;2022-07-03T16:52:23;0.00;;;0.00;;
16250;SDS011;8233;50.650;6.832;2022-07-03T16:54:50;0.00;;;0.00;;
16250;SDS011;8233;50.650;6.832;2022-07-03T16:57:16;0.00;;;0.00;;
16250;SDS011;8233;50.650;6.832;2022-07-03T16:59:43;0.00;;;0.00;;
16250;SDS011;8233;50.650;6.832;2022-07-03T17:02:12;0.00;;;0.00;;
16250;SDS011;8233;50.650;6.832;2022-07-03T17:04:41;0.00;;;0.00;;
16250;SDS011;8233;50.650;6.832;2022-07-03T17:07:10;0.00;;;0.00;;
16250;SDS011;8233;50.650;6.832;2022-07-03T17:09:38;0.00;;;0.00;;
16250;SDS011;8233;50.650;6.832;2022-07-03T17:12:04;0.00;;;0.00;;
16250;SDS011;8233;50.650;6.832;2022-07-03T17:14:31;0.00;;;0.00;;
16250;SDS011;8233;50.650;6.832;2022-07-03T17:17:00;0.00;;;0.00;;